Time;durP1;ratioP1;P1;durP2;ratioP2;P2;SDS_P1;SDS_P2;PMS_P1;PMS_P2;Temp;Humidity;BMP_temperature;BMP_pressure;BME280_temperature;BME280_humidity;BME280_pressure;Samples;Min_cycle;Max_cycle;Signal;HPM_P1;HPM_P2
2023/10/04 00:00:37;;;;;;;14.65;9.80;;;;;;;15.69;52.96;95637.72;5069153;28;20182;-71
2023/10/04 00:03:02;;;;;;;12.63;10.13;;;;;;;15.68;53.11;95638.69;5050450;28;20188;-70
2023/10/04 00:05:28;;;;;;;15.32;10.23;;;;;;;15.76;52.78;95636.03;5077450;28;20291;-71
2023/10/04 00:07:55;;;;;;;21.38;10.40;;;;;;;15.80;52.46;95637.38;5051694;28;20221;-71
2023/10/04 00:10:23;;;;;;;14.95;10.10;;;;;;;15.73;52.57;95641.69;5056555;28;20250;-70
2023/10/04 00:12:49;;;;;;;16.75;10.50;;;;;;;15.50;53.03;95632.72;5050367;28;20321;-71
2023/10/04 00:15:14;;;;;;;15.63;9.77;;;;;;;15.58;52.81;95633.56;5049019;28;20232;-71
2023/10/04 00:17:44;;;;;;;12.63;9.55;;;;;;;15.40;53.34;95628.44;5051383;28;20221;-71
2023/10/04 00:20:10;;;;;;;15.18;10.57;;;;;;;15.27;54.12;95629.94;5073944;28;20232;-71
2023/10/04 00:22:38;;;;;;;13.85;10.63;;;;;;;15.39;53.68;95625.94;5057673;28;20235;-71
2023/10/04 00:25:08;;;;;;;18.98;10.23;;;;;;;15.39;53.56;95624.13;5052573;28;20271;-71
2023/10/04 00:27:33;;;;;;;12.85;9.98;;;;;;;15.37;53.69;95623.47;5069010;28;20196;-70
2023/10/04 00:29:59;;;;;;;13.43;9.50;;;;;;;15.42;53.51;95629.09;5059095;28;20196;-71
2023/10/04 00:32:26;;;;;;;16.88;10.88;;;;;;;15.42;53.62;95625.59;5076202;28;20223;-71
2023/10/04 00:34:52;;;;;;;14.32;10.90;;;;;;;15.11;54.55;95628.13;5072663;28;20220;-71
2023/10/04 00:37:18;;;;;;;11.63;10.07;;;;;;;15.00;54.78;95632.72;5069449;28;20213;-71
2023/10/04 00:39:43;;;;;;;15.30;10.63;;;;;;;14.88;55.33;95631.38;5070574;28;20256;-71
2023/10/04 00:42:09;;;;;;;14.13;10.90;;;;;;;15.06;54.67;95625.94;5072176;28;20234;-70
2023/10/04 00:44:35;;;;;;;13.27;10.50;;;;;;;14.98;55.14;95621.47;5056465;28;20216;-71
2023/10/04 00:47:05;;;;;;;13.55;10.30;;;;;;;14.97;54.86;95616.34;5053318;28;20232;-71
2023/10/04 00:49:33;;;;;;;12.82;11.00;;;;;;;14.86;55.44;95621.94;5056861;28;20226;-71
2023/10/04 00:52:05;;;;;;;12.68;10.13;;;;;;;14.83;55.49;95622.28;5051106;28;20222;-71
2023/10/04 00:54:31;;;;;;;14.63;9.82;;;;;;;14.88;55.18;95619.97;5054125;28;20225;-70
2023/10/04 00:56:57;;;;;;;15.40;10.38;;;;;;;14.65;56.00;95627.69;5074349;28;20173;-71
2023/10/04 00:59:22;;;;;;;12.70;10.40;;;;;;;14.66;56.27;95624.88;5055957;28;20239;-71
2023/10/04 01:01:48;;;;;;;15.57;9.98;;;;;;;14.73;55.79;95625.09;5073318;28;20216;-71
2023/10/04 01:04:14;;;;;;;14.55;10.23;;;;;;;14.75;55.86;95625.72;5071746;28;20227;-71
2023/10/04 01:06:41;;;;;;;15.35;10.57;;;;;;;14.65;56.09;95622.38;5054445;28;20203;-71
2023/10/04 01:09:08;;;;;;;13.60;10.32;;;;;;;14.47;56.66;95620.69;5051209;28;20235;-71
2023/10/04 01:11:37;;;;;;;13.70;9.85;;;;;;;14.70;56.17;95630.69;5069204;28;20212;-71
2023/10/04 01:14:25;;;;;;;13.65;9.50;;;;;;;14.70;55.91;95625.38;5073958;28;20223;-71
2023/10/04 01:16:52;;;;;;;12.82;10.30;;;;;;;14.61;56.28;95634.31;5050217;28;20291;-71
2023/10/04 01:19:17;;;;;;;12.32;9.93;;;;;;;14.39;56.74;95633.06;5056883;28;20220;-71
2023/10/04 01:21:43;;;;;;;14.20;9.82;;;;;;;14.61;56.22;95629.00;5074332;28;20193;-70
2023/10/04 01:24:11;;;;;;;17.48;10.40;;;;;;;14.56;56.24;95635.59;5046697;28;20214;-71
2023/10/04 01:26:39;;;;;;;14.60;10.90;;;;;;;14.62;56.39;95634.16;5055176;28;20272;-70
2023/10/04 01:29:12;;;;;;;13.88;10.48;;;;;;;14.23;57.47;95639.13;5078707;28;20228;-70
2023/10/04 01:31:38;;;;;;;12.82;10.20;;;;;;;14.35;57.14;95645.75;5050005;28;20225;-70
2023/10/04 01:34:06;;;;;;;18.42;11.85;;;;;;;14.17;57.47;95635.28;5066938;28;20260;-70
2023/10/04 01:36:32;;;;;;;14.65;10.63;;;;;;;14.17;57.58;95635.28;5049617;28;20191;-70
2023/10/04 01:38:58;;;;;;;12.95;9.32;;;;;;;14.06;57.74;95633.75;5056790;28;20177;-70
2023/10/04 01:41:27;;;;;;;12.80;8.85;;;;;;;14.09;57.47;95640.53;5052754;28;20217;-70
2023/10/04 01:44:00;;;;;;;15.07;10.27;;;;;;;14.20;57.41;95637.63;5051899;28;20288;-71
2023/10/04 01:46:26;;;;;;;13.70;10.07;;;;;;;14.34;57.01;95639.63;5068605;28;20236;-71
2023/10/04 01:48:52;;;;;;;10.90;9.00;;;;;;;14.39;57.22;95635.69;5071729;28;20229;-71
2023/10/04 01:51:17;;;;;;;14.25;10.48;;;;;;;14.52;56.34;95630.78;5049859;28;20188;-71
2023/10/04 01:53:45;;;;;;;15.32;10.50;;;;;;;14.42;56.69;95638.03;5067986;28;20209;-72
2023/10/04 01:56:11;;;;;;;11.45;9.43;;;;;;;14.30;56.86;95635.69;5065793;28;20221;-71
2023/10/04 01:58:37;;;;;;;11.73;10.50;;;;;;;14.22;57.26;95638.28;5058323;28;20221;-71
2023/10/04 02:01:05;;;;;;;14.75;10.35;;;;;;;14.34;56.87;95636.19;5045416;28;20274;-71
2023/10/04 02:03:32;;;;;;;13.82;9.88;;;;;;;14.42;56.43;95628.25;5064343;28;20185;-71
2023/10/04 02:05:57;;;;;;;14.73;10.98;;;;;;;14.29;56.79;95634.00;5063929;28;20230;-71
2023/10/04 02:08:23;;;;;;;15.15;10.68;;;;;;;14.28;56.68;95632.34;5054676;28;20217;-71
2023/10/04 02:10:50;;;;;;;15.20;10.38;;;;;;;14.26;56.76;95639.63;5072432;28;20226;-71
2023/10/04 02:13:16;;;;;;;12.82;9.23;;;;;;;14.42;56.30;95633.56;5046979;28;20220;-71
2023/10/04 02:15:50;;;;;;;14.23;9.73;;;;;;;14.22;56.99;95637.44;5044399;28;20275;-70
2023/10/04 02:18:18;;;;;;;15.15;10.80;;;;;;;14.20;56.92;95632.31;5068598;28;20183;-71
2023/10/04 02:20:47;;;;;;;14.32;10.02;;;;;;;14.29;56.62;95635.81;5067002;28;20216;-71
2023/10/04 02:23:13;;;;;;;12.38;10.00;;;;;;;14.27;56.75;95635.16;5064764;28;20220;-71
2023/10/04 02:25:39;;;;;;;14.70;10.15;;;;;;;14.33;56.55;95631.88;5064001;28;20229;-71
2023/10/04 02:28:11;;;;;;;13.38;9.93;;;;;;;14.40;56.24;95640.00;5048845;28;20266;-71
2023/10/04 02:30:40;;;;;;;14.05;9.35;;;;;;;14.31;56.35;95626.75;5072320;28;20205;-71
2023/10/04 02:33:13;;;;;;;13.98;9.50;;;;;;;14.42;56.18;95635.38;5069632;28;20299;-71
2023/10/04 02:35:44;;;;;;;12.05;9.10;;;;;;;14.33;56.40;95629.25;5072248;28;20221;-71
2023/10/04 02:38:31;;;;;;;13.65;10.30;;;;;;;14.26;56.61;95634.31;5052856;28;20291;-71
2023/10/04 02:40:59;;;;;;;14.82;10.70;;;;;;;14.00;57.26;95639.66;5046964;28;20260;-71
2023/10/04 02:43:25;;;;;;;17.02;11.10;;;;;;;13.91;57.61;95635.31;5063605;28;20278;-71
2023/10/04 02:45:52;;;;;;;13.73;10.77;;;;;;;13.94;57.67;95645.56;5053350;28;20217;-71
2023/10/04 02:48:19;;;;;;;13.85;10.05;;;;;;;13.98;57.19;95633.72;5065970;28;20231;-71
2023/10/04 02:50:46;;;;;;;11.52;10.25;;;;;;;13.94;57.47;95635.00;5047183;28;20217;-71
2023/10/04 02:53:16;;;;;;;12.82;10.57;;;;;;;13.64;58.59;95634.50;5058613;28;20235;-71
2023/10/04 02:55:42;;;;;;;16.40;11.25;;;;;;;13.40;59.43;95635.16;5069381;28;20304;-71
2023/10/04 02:58:09;;;;;;;13.60;10.25;;;;;;;13.41;59.38;95638.63;5067449;28;20227;-70
2023/10/04 03:00:44;;;;;;;14.60;10.88;;;;;;;13.42;59.25;95635.03;5065584;28;20181;-70
2023/10/04 03:03:12;;;;;;;15.73;10.57;;;;;;;13.46;59.22;95628.44;5044311;28;20195;-70
2023/10/04 03:05:40;;;;;;;14.10;10.52;;;;;;;13.56;58.92;95637.09;5066556;28;20221;-70
2023/10/04 03:08:06;;;;;;;12.95;10.77;;;;;;;13.51;59.02;95617.41;5064939;28;20307;-70
2023/10/04 03:10:33;;;;;;;12.65;10.60;;;;;;;13.65;58.53;95628.22;5065917;28;20259;-70
2023/10/04 03:13:01;;;;;;;14.25;10.88;;;;;;;13.85;57.69;95634.13;5045588;28;20221;-70
2023/10/04 03:15:28;;;;;;;14.07;11.35;;;;;;;13.75;58.01;95632.59;5066573;28;20263;-70
2023/10/04 03:17:57;;;;;;;19.90;10.82;;;;;;;13.68;57.86;95635.88;5071847;28;20240;-70
2023/10/04 03:20:23;;;;;;;18.58;11.60;;;;;;;13.71;58.06;95639.16;5087320;28;20244;-70
2023/10/04 03:22:50;;;;;;;14.65;10.95;;;;;;;13.60;58.52;95635.78;5092461;28;20299;-70
2023/10/04 03:25:17;;;;;;;19.70;11.05;;;;;;;13.48;58.72;95633.56;5073543;28;20227;-70
2023/10/04 03:27:44;;;;;;;15.82;10.68;;;;;;;13.47;58.86;95632.72;5087213;28;20195;-69
2023/10/04 03:30:14;;;;;;;18.48;10.35;;;;;;;13.58;58.66;95640.41;5068021;28;20232;-71
2023/10/04 03:32:51;;;;;;;20.63;10.45;;;;;;;13.57;58.53;95633.44;5084746;28;20216;-72
2023/10/04 03:35:20;;;;;;;22.67;12.15;;;;;;;13.65;58.17;95643.25;5094261;28;20307;-71
2023/10/04 03:37:54;;;;;;;20.70;11.75;;;;;;;13.70;58.14;95640.16;5077202;28;20224;-71
2023/10/04 03:40:21;;;;;;;14.50;11.15;;;;;;;13.65;58.22;95640.59;5085708;28;20241;-71
2023/10/04 03:42:46;;;;;;;15.20;9.93;;;;;;;13.60;58.56;95638.44;5093602;28;20233;-72
2023/10/04 03:45:13;;;;;;;15.18;10.63;;;;;;;13.67;58.18;95644.75;5066540;28;20187;-71
2023/10/04 03:47:39;;;;;;;18.08;11.23;;;;;;;13.58;58.86;95639.56;5063169;28;20236;-70
2023/10/04 03:50:09;;;;;;;18.15;11.63;;;;;;;13.64;58.36;95642.44;5067955;28;20234;-73
2023/10/04 03:52:34;;;;;;;14.50;11.10;;;;;;;13.56;58.51;95638.91;5064512;28;20239;-69
2023/10/04 03:55:00;;;;;;;15.45;10.50;;;;;;;13.49;58.74;95632.56;5085414;28;20217;-71
2023/10/04 03:57:25;;;;;;;17.17;11.43;;;;;;;13.42;58.77;95629.75;5065354;28;20276;-71
2023/10/04 03:59:51;;;;;;;21.48;11.45;;;;;;;13.41;58.91;95639.44;5072042;28;20224;-70
2023/10/04 04:02:16;;;;;;;13.65;10.93;;;;;;;13.37;59.53;95646.03;5062024;28;20259;-70
2023/10/04 04:04:42;;;;;;;22.85;11.82;;;;;;;13.28;59.23;95638.19;5067116;28;20228;-71
2023/10/04 04:07:07;;;;;;;16.17;11.77;;;;;;;13.34;58.85;95637.56;5086219;28;20237;-71
2023/10/04 04:09:33;;;;;;;15.05;11.32;;;;;;;13.33;58.91;95635.94;5073575;28;20208;-71
2023/10/04 04:11:59;;;;;;;15.70;11.77;;;;;;;13.41;58.83;95638.63;5074854;28;20185;-70
2023/10/04 04:14:25;;;;;;;14.02;11.55;;;;;;;13.42;58.51;95638.50;5067976;28;20212;-71
2023/10/04 04:16:51;;;;;;;14.93;11.23;;;;;;;13.51;58.26;95635.91;5060039;28;20224;-70
2023/10/04 04:19:19;;;;;;;18.52;11.27;;;;;;;13.48;58.52;95631.75;5072049;28;20220;-70
2023/10/04 04:21:44;;;;;;;16.65;12.38;;;;;;;13.27;59.23;95637.38;5067210;28;20197;-69
2023/10/04 04:24:10;;;;;;;21.25;12.55;;;;;;;13.40;58.61;95639.63;5071064;28;20211;-70
2023/10/04 04:26:35;;;;;;;16.85;10.93;;;;;;;13.38;58.62;95639.75;5069674;28;20225;-70
2023/10/04 04:29:02;;;;;;;20.02;12.07;;;;;;;13.40;58.76;95644.91;5058407;28;20232;-70
2023/10/04 04:31:27;;;;;;;15.85;11.05;;;;;;;13.34;58.75;95634.94;5071996;28;20224;-72
2023/10/04 04:33:54;;;;;;;19.65;12.30;;;;;;;13.49;58.30;95633.41;5084577;28;20217;-71
2023/10/04 04:36:25;;;;;;;18.92;11.50;;;;;;;13.37;58.31;95632.84;5067079;28;20180;-70
2023/10/04 04:38:53;;;;;;;18.80;11.95;;;;;;;13.25;58.86;95640.13;5069826;28;20211;-69
2023/10/04 04:41:25;;;;;;;21.73;11.25;;;;;;;13.35;58.14;95636.59;5066816;28;20245;-71
2023/10/04 04:43:55;;;;;;;23.92;12.20;;;;;;;13.33;58.37;95633.28;5070446;28;20269;-70
2023/10/04 04:46:22;;;;;;;19.05;12.32;;;;;;;13.21;58.72;95636.16;5082235;28;20262;-71
2023/10/04 04:48:48;;;;;;;22.00;12.80;;;;;;;13.12;58.81;95628.28;5073931;28;20256;-72
2023/10/04 04:51:15;;;;;;;16.65;10.40;;;;;;;13.00;59.22;95623.25;5073481;28;20275;-70
2023/10/04 04:53:42;;;;;;;14.60;11.52;;;;;;;12.96;59.54;95636.91;5090065;28;20327;-71
2023/10/04 04:56:15;;;;;;;15.45;11.77;;;;;;;13.10;58.93;95636.38;5070832;28;20224;-71
2023/10/04 04:58:48;;;;;;;17.40;12.38;;;;;;;13.25;58.59;95636.66;5088060;28;20234;-70
2023/10/04 05:01:15;;;;;;;20.85;11.77;;;;;;;13.00;59.57;95635.63;5085991;28;20216;-71
2023/10/04 05:03:43;;;;;;;17.95;12.45;;;;;;;13.21;58.81;95640.59;5091132;28;20200;-70
2023/10/04 05:06:14;;;;;;;22.75;12.18;;;;;;;13.41;58.48;95649.19;5097287;28;20218;-70
2023/10/04 05:08:40;;;;;;;18.33;11.55;;;;;;;13.41;58.42;95642.09;5093893;28;20239;-70
2023/10/04 05:11:07;;;;;;;21.50;11.32;;;;;;;13.55;58.27;95646.00;5080178;28;20659;-70
2023/10/04 05:13:32;;;;;;;16.27;11.52;;;;;;;13.54;58.22;95646.97;5091504;28;20262;-70
2023/10/04 05:15:59;;;;;;;18.35;11.88;;;;;;;13.55;58.12;95645.16;5095913;28;20232;-70
2023/10/04 05:18:26;;;;;;;17.38;11.85;;;;;;;13.59;58.10;95657.91;5097119;28;20302;-69
2023/10/04 05:20:55;;;;;;;18.00;11.60;;;;;;;13.58;57.96;95648.34;5071972;28;20361;-78
2023/10/04 05:23:22;;;;;;;19.90;12.38;;;;;;;13.52;58.33;95648.13;5083136;28;20213;-75
2023/10/04 05:25:49;;;;;;;18.10;11.57;;;;;;;13.52;58.27;95645.47;5077973;28;20215;-75
2023/10/04 05:28:14;;;;;;;18.27;11.23;;;;;;;13.50;58.34;95648.28;5075909;28;20219;-73
2023/10/04 05:30:43;;;;;;;18.73;11.00;;;;;;;13.70;57.96;95656.00;5087505;28;20203;-72
2023/10/04 05:33:10;;;;;;;20.50;11.23;;;;;;;13.64;58.14;95653.00;5070180;28;20239;-82
2023/10/04 05:35:36;;;;;;;14.52;10.75;;;;;;;13.57;57.94;95653.78;5071770;28;20219;-76
2023/10/04 05:38:06;;;;;;;17.45;11.30;;;;;;;13.66;57.58;95652.84;5061315;28;20234;-76
2023/10/04 05:40:34;;;;;;;19.13;12.27;;;;;;;13.82;57.09;95663.53;5083076;28;20375;-76
2023/10/04 05:43:00;;;;;;;23.10;12.18;;;;;;;13.88;56.96;95664.72;5065714;28;20297;-77
2023/10/04 05:45:26;;;;;;;21.73;11.65;;;;;;;13.96;56.52;95670.06;5073020;28;20187;-77
2023/10/04 05:47:52;;;;;;;19.98;11.10;;;;;;;14.04;56.35;95669.28;5068138;28;20228;-77
2023/10/04 05:50:21;;;;;;;14.70;10.35;;;;;;;14.19;55.27;95675.59;5069533;28;20219;-76
2023/10/04 05:52:50;;;;;;;17.42;11.18;;;;;;;14.29;55.11;95671.03;5066048;28;20212;-76
2023/10/04 05:55:20;;;;;;;14.60;10.35;;;;;;;14.27;54.65;95669.53;5083959;28;20212;-76
2023/10/04 05:57:47;;;;;;;16.55;10.45;;;;;;;14.41;54.38;95673.44;5075724;28;20188;-75
2023/10/04 06:00:33;;;;;;;18.05;10.60;;;;;;;14.39;54.46;95673.56;5083445;28;20184;-76
2023/10/04 06:03:06;;;;;;;15.95;9.90;;;;;;;14.25;54.45;95672.34;5066175;28;20224;-74
2023/10/04 06:05:34;;;;;;;18.80;9.85;;;;;;;14.41;54.30;95676.06;5064821;28;20231;-75
2023/10/04 06:08:11;;;;;;;16.15;10.43;;;;;;;14.53;54.18;95674.81;5041300;28;20301;-74
2023/10/04 06:10:38;;;;;;;13.60;9.82;;;;;;;14.55;53.96;95675.47;5069867;28;20290;-75
2023/10/04 06:13:03;;;;;;;13.70;10.13;;;;;;;14.57;53.91;95676.16;5056382;28;20220;-76
2023/10/04 06:15:31;;;;;;;14.35;9.75;;;;;;;14.54;53.57;95674.66;5038317;28;20183;-74
2023/10/04 06:17:57;;;;;;;17.85;9.63;;;;;;;14.60;53.68;95683.78;5070455;28;20173;-73
2023/10/04 06:22:56;;;;;;;12.32;9.52;;;;;;;14.43;54.12;95677.53;5057602;28;20227;-77
2023/10/04 06:25:23;;;;;;;12.05;9.07;;;;;;;14.72;53.68;95687.75;5071664;28;20649;-77
2023/10/04 06:27:53;;;;;;;11.60;9.10;;;;;;;14.86;52.98;95688.97;5067560;28;20223;-76
2023/10/04 06:30:21;;;;;;;13.82;8.80;;;;;;;14.86;53.24;95682.84;5078350;28;20193;-78
2023/10/04 06:32:51;;;;;;;11.15;8.93;;;;;;;14.98;52.94;95685.03;5054052;28;20204;-81
2023/10/04 06:35:17;;;;;;;14.25;10.02;;;;;;;15.04;52.60;95686.19;5064545;28;20277;-76
2023/10/04 06:37:44;;;;;;;11.23;9.30;;;;;;;15.16;52.42;95686.72;5053159;28;20255;-84
2023/10/04 06:40:15;;;;;;;12.07;9.70;;;;;;;15.22;52.37;95686.88;5070898;28;20232;-81
2023/10/04 06:42:43;;;;;;;14.23;10.25;;;;;;;15.25;52.00;95693.69;5065469;28;20519;-78
2023/10/04 06:45:09;;;;;;;16.88;11.20;;;;;;;15.33;52.10;95690.22;5059277;28;20177;-77
2023/10/04 06:47:35;;;;;;;16.00;12.48;;;;;;;15.29;52.26;95691.53;5069278;28;20294;-79
2023/10/04 06:50:02;;;;;;;16.13;12.07;;;;;;;15.30;52.29;95699.31;5061444;28;20221;-77
2023/10/04 06:52:27;;;;;;;15.27;10.82;;;;;;;15.14;52.57;95696.66;5078290;28;20304;-83
2023/10/04 06:54:53;;;;;;;16.30;12.00;;;;;;;15.18;52.34;95708.56;5059722;28;20301;-82
2023/10/04 06:57:19;;;;;;;16.63;12.00;;;;;;;15.26;52.19;95702.44;5053916;28;20176;-80
2023/10/04 06:59:44;;;;;;;17.23;11.05;;;;;;;15.31;52.21;95702.78;5073779;28;20266;-81
2023/10/04 07:02:10;;;;;;;16.35;11.77;;;;;;;15.59;51.88;95703.31;5071446;28;20222;-78
2023/10/04 07:04:35;;;;;;;18.05;12.90;;;;;;;15.38;52.06;95704.63;5076086;28;20228;-73
2023/10/04 07:07:01;;;;;;;16.10;12.20;;;;;;;15.51;51.63;95703.31;5057081;28;20316;-73
2023/10/04 07:09:27;;;;;;;17.30;12.60;;;;;;;15.55;51.91;95705.44;5059637;28;20170;-68
2023/10/04 07:11:53;;;;;;;17.05;12.70;;;;;;;15.70;51.45;95708.31;5058296;28;20221;-68
2023/10/04 07:14:19;;;;;;;21.35;13.00;;;;;;;15.76;51.21;95707.63;5054597;28;20216;-67
2023/10/04 07:16:44;;;;;;;20.80;13.40;;;;;;;15.78;51.11;95699.53;5067569;28;20221;-69
2023/10/04 07:19:11;;;;;;;17.88;13.43;;;;;;;15.94;50.70;95702.16;5068979;28;20224;-69
2023/10/04 07:21:37;;;;;;;19.60;13.32;;;;;;;15.98;50.64;95695.50;5059829;28;20223;-69
2023/10/04 07:24:02;;;;;;;21.50;14.27;;;;;;;16.05;50.73;95691.19;5076516;28;20185;-69
2023/10/04 07:26:34;;;;;;;17.00;13.20;;;;;;;16.22;50.59;95691.13;5059370;28;20256;-69
2023/10/04 07:28:59;;;;;;;22.83;14.05;;;;;;;16.25;50.19;95686.34;5057951;28;20212;-67
2023/10/04 07:31:25;;;;;;;21.20;14.07;;;;;;;16.31;50.34;95688.31;5077667;28;20253;-67
2023/10/04 07:33:51;;;;;;;24.48;13.48;;;;;;;16.38;50.33;95687.63;5057218;28;20225;-68
2023/10/04 07:36:16;;;;;;;20.33;14.90;;;;;;;16.39;49.94;95686.63;5053285;28;20192;-68
2023/10/04 07:38:42;;;;;;;20.45;14.10;;;;;;;16.37;50.22;95685.97;5040111;28;20232;-68
2023/10/04 07:41:08;;;;;;;21.48;14.00;;;;;;;16.52;49.77;95685.09;5048810;28;20214;-67
2023/10/04 07:43:33;;;;;;;20.20;14.02;;;;;;;16.58;49.47;95683.56;5072287;28;20220;-68
2023/10/04 07:46:00;;;;;;;19.98;13.90;;;;;;;16.63;49.22;95681.22;5055140;28;20235;-71
2023/10/04 07:48:25;;;;;;;16.55;13.40;;;;;;;16.61;49.58;95683.22;5059981;28;20235;-75
2023/10/04 07:50:51;;;;;;;16.73;13.27;;;;;;;16.73;49.38;95679.19;5036602;28;20221;-70
2023/10/04 07:53:21;;;;;;;16.58;13.45;;;;;;;16.76;49.29;95678.00;5056910;28;20215;-71
2023/10/04 07:55:49;;;;;;;15.75;13.07;;;;;;;16.96;49.04;95673.09;5046807;28;20290;-69
2023/10/04 07:58:14;;;;;;;20.95;14.75;;;;;;;16.90;49.07;95682.59;5040746;28;20217;-69
2023/10/04 08:00:41;;;;;;;17.83;14.07;;;;;;;17.01;48.86;95681.38;5059649;28;20189;-73
2023/10/04 08:03:08;;;;;;;20.45;14.98;;;;;;;17.10;48.08;95680.31;5053981;28;20212;-71
2023/10/04 08:05:35;;;;;;;23.00;14.52;;;;;;;17.19;47.88;95673.97;5057466;28;20304;-67
2023/10/04 08:08:02;;;;;;;19.85;15.27;;;;;;;17.16;48.02;95663.69;5058412;28;20224;-70
2023/10/04 08:10:30;;;;;;;23.30;14.88;;;;;;;17.23;47.89;95671.75;5085372;28;20299;-68
2023/10/04 08:12:59;;;;;;;18.52;14.95;;;;;;;17.27;47.65;95664.25;5088882;28;20216;-72
2023/10/04 08:15:26;;;;;;;20.27;14.57;;;;;;;17.39;47.46;95665.50;5090326;28;20321;-69
2023/10/04 08:17:55;;;;;;;19.63;15.57;;;;;;;17.40;47.29;95659.16;5085593;28;20242;-69
2023/10/04 08:20:22;;;;;;;22.10;14.65;;;;;;;17.41;46.95;95653.69;5068600;28;20236;-70
2023/10/04 08:22:48;;;;;;;19.88;14.15;;;;;;;17.51;47.09;95664.09;5073880;28;20295;-69
2023/10/04 08:25:19;;;;;;;19.10;15.77;;;;;;;17.54;47.29;95653.09;5082742;28;20294;-68
2023/10/04 08:42:35;;;;;;;19.67;14.77;;;;;;;18.10;46.06;95639.44;5067992;27;20586;-75
2023/10/04 08:45:02;;;;;;;20.13;14.75;;;;;;;18.21;45.42;95646.97;5038387;28;20233;-75
2023/10/04 08:47:29;;;;;;;23.05;14.93;;;;;;;18.26;45.00;95638.44;5018671;28;20222;-78
2023/10/04 08:49:58;;;;;;;20.63;13.80;;;;;;;18.42;44.45;95640.91;5058540;28;20226;-77
2023/10/04 08:52:35;;;;;;;19.52;15.30;;;;;;;18.43;44.60;95642.56;5032407;28;20631;-72
2023/10/04 08:55:07;;;;;;;17.00;14.48;;;;;;;18.43;44.63;95639.88;5033565;28;20328;-72
2023/10/04 08:57:36;;;;;;;21.20;14.75;;;;;;;18.48;44.42;95642.81;5036777;28;20212;-74
2023/10/04 09:00:06;;;;;;;22.63;13.20;;;;;;;18.61;44.41;95641.34;5039433;28;20316;-75
2023/10/04 09:02:33;;;;;;;20.13;14.73;;;;;;;18.67;44.45;95633.44;5019544;28;20321;-69
2023/10/04 09:04:59;;;;;;;19.92;14.32;;;;;;;18.83;44.15;95623.59;5042378;28;20271;-70
2023/10/04 09:07:25;;;;;;;19.00;14.18;;;;;;;19.09;43.86;95637.22;5036291;28;20263;-76
2023/10/04 09:09:54;;;;;;;16.27;14.52;;;;;;;19.22;43.12;95639.19;5038267;28;20305;-69
2023/10/04 09:12:19;;;;;;;20.13;13.77;;;;;;;19.32;44.30;95637.00;5040080;28;20212;-69
2023/10/04 09:14:46;;;;;;;16.33;14.13;;;;;;;19.41;43.22;95631.56;5036976;28;20226;-70
2023/10/04 09:17:14;;;;;;;18.73;13.70;;;;;;;19.49;42.42;95632.25;5026954;28;20218;-70
2023/10/04 09:19:41;;;;;;;19.02;12.63;;;;;;;19.50;43.09;95636.56;5023631;28;20213;-67
2023/10/04 09:22:08;;;;;;;19.90;13.68;;;;;;;19.47;43.52;95628.13;5033274;28;20249;-74
2023/10/04 09:24:53;;;;;;;17.23;13.30;;;;;;;19.60;42.74;95636.25;5013368;28;20190;-71
2023/10/04 09:27:22;;;;;;;19.17;12.57;;;;;;;19.51;41.75;95626.72;5029288;28;20218;-72
2023/10/04 10:04:44;;;;;;;17.35;12.60;;;;;;;21.02;40.72;95617.13;5072752;27;20593;-71
2023/10/04 10:07:21;;;;;;;17.20;13.05;;;;;;;21.20;39.54;95605.00;5042186;28;20221;-70
2023/10/04 10:09:59;;;;;;;17.65;11.82;;;;;;;21.24;38.58;95590.22;5046859;28;20299;-70
2023/10/04 10:12:32;;;;;;;15.45;11.68;;;;;;;21.48;38.84;95591.50;5071892;28;20306;-70
2023/10/04 10:15:01;;;;;;;16.48;11.05;;;;;;;21.57;39.63;95584.91;5037712;28;20228;-69
2023/10/04 10:17:30;;;;;;;15.57;11.52;;;;;;;21.72;39.69;95585.53;5034783;28;20233;-69
2023/10/04 10:19:57;;;;;;;15.30;11.15;;;;;;;21.89;38.95;95587.75;5033829;28;20210;-69
2023/10/04 10:22:23;;;;;;;16.35;11.20;;;;;;;21.99;36.49;95572.09;5035860;28;20213;-74
2023/10/04 10:24:57;;;;;;;16.65;10.68;;;;;;;22.00;37.38;95581.78;5036523;28;20222;-73
2023/10/04 10:27:25;;;;;;;16.27;11.10;;;;;;;22.08;36.82;95565.50;5031845;28;20244;-74
2023/10/04 10:29:51;;;;;;;14.60;11.00;;;;;;;22.12;38.30;95566.72;5038341;28;20221;-72
2023/10/04 10:32:24;;;;;;;14.57;9.82;;;;;;;22.18;38.00;95552.50;5041123;28;20743;-76
2023/10/04 10:35:06;;;;;;;12.98;9.80;;;;;;;22.35;36.46;95550.19;5034864;28;20273;-69
2023/10/04 10:37:38;;;;;;;14.13;10.18;;;;;;;22.44;35.79;95545.41;5037080;28;20308;-70
2023/10/04 10:40:13;;;;;;;12.80;9.10;;;;;;;22.56;34.48;95548.22;5038431;28;20264;-71
2023/10/04 10:43:12;;;;;;;12.55;8.80;;;;;;;22.66;34.43;95545.91;5035909;28;20240;-76
2023/10/04 10:45:37;;;;;;;12.35;9.05;;;;;;;22.59;33.54;95540.59;4985137;28;20226;-72
2023/10/04 10:48:08;;;;;;;15.18;10.02;;;;;;;22.58;33.66;95533.59;4990258;28;20269;-72
2023/10/04 10:50:37;;;;;;;13.43;9.07;;;;;;;22.72;33.76;95541.56;4984106;28;20219;-72
2023/10/04 10:53:05;;;;;;;11.60;9.00;;;;;;;22.78;32.94;95533.50;4978601;28;20223;-73
2023/10/04 10:55:33;;;;;;;13.13;8.07;;;;;;;22.82;32.05;95529.31;4999449;28;20202;-75
2023/10/04 10:57:59;;;;;;;11.68;8.73;;;;;;;22.90;32.56;95521.03;4984039;28;20195;-75
2023/10/04 11:00:31;;;;;;;10.48;8.23;;;;;;;23.04;31.55;95527.19;4988778;28;20258;-74
2023/10/04 11:02:57;;;;;;;13.73;8.60;;;;;;;23.02;31.08;95515.84;4986505;28;20250;-73
2023/10/04 11:05:23;;;;;;;11.05;7.50;;;;;;;23.18;30.67;95521.72;4975331;28;20220;-70
2023/10/04 11:07:50;;;;;;;11.10;8.32;;;;;;;23.23;31.34;95521.84;4993809;28;20245;-72
2023/10/04 11:10:16;;;;;;;14.30;7.50;;;;;;;23.29;30.56;95510.25;4974779;28;20188;-71
2023/10/04 11:12:49;;;;;;;11.98;8.38;;;;;;;23.46;29.63;95532.81;4975172;28;20294;-74
2023/10/04 11:15:18;;;;;;;8.68;7.32;;;;;;;23.56;29.90;95516.22;4972215;28;20227;-71
2023/10/04 11:17:44;;;;;;;11.23;7.85;;;;;;;23.70;28.97;95523.09;4975034;28;20246;-70
2023/10/04 11:20:11;;;;;;;8.73;7.18;;;;;;;23.82;29.31;95517.88;4976721;28;20828;-74
2023/10/04 11:22:38;;;;;;;8.70;7.28;;;;;;;23.99;29.00;95518.91;5028710;28;20211;-72
2023/10/04 11:25:06;;;;;;;9.00;7.20;;;;;;;24.20;27.63;95511.44;5021572;28;20179;-72
2023/10/04 11:27:32;;;;;;;10.27;8.13;;;;;;;24.27;29.79;95505.97;5017357;28;20222;-72
2023/10/04 11:29:59;;;;;;;9.85;8.18;;;;;;;24.42;29.58;95507.25;5020437;28;20715;-69
2023/10/04 11:32:28;;;;;;;12.00;8.23;;;;;;;24.56;27.55;95505.22;5020815;28;20218;-73
2023/10/04 11:34:56;;;;;;;9.00;7.13;;;;;;;24.77;27.13;95505.78;5027244;28;20225;-72
2023/10/04 11:37:27;;;;;;;8.57;7.30;;;;;;;24.89;27.16;95495.06;5020210;28;20183;-72
2023/10/04 11:39:54;;;;;;;13.30;7.13;;;;;;;25.04;27.57;95498.94;5016945;28;20218;-73
2023/10/04 11:42:22;;;;;;;9.02;7.15;;;;;;;25.15;26.30;95499.22;5024358;28;20933;-73
2023/10/04 11:44:48;;;;;;;8.07;6.53;;;;;;;25.25;26.66;95483.34;5022623;28;20215;-70
2023/10/04 11:47:15;;;;;;;9.80;6.82;;;;;;;25.34;26.03;95486.50;5025505;28;20222;-72
2023/10/04 11:49:59;;;;;;;8.77;7.05;;;;;;;25.42;27.11;95484.31;5023901;28;20186;-69
2023/10/04 11:52:31;;;;;;;10.15;6.18;;;;;;;25.52;25.44;95479.16;5021116;28;20196;-68
2023/10/04 11:54:58;;;;;;;10.00;6.57;;;;;;;25.58;25.33;95474.72;5021474;28;20274;-69
2023/10/04 11:57:28;;;;;;;10.68;7.35;;;;;;;25.66;26.89;95473.53;5025857;28;20215;-75
2023/10/04 11:59:56;;;;;;;8.88;6.78;;;;;;;25.80;26.42;95474.13;5019439;28;20222;-75
2023/10/04 12:02:22;;;;;;;8.40;6.72;;;;;;;25.94;26.14;95470.94;5018146;28;20233;-75
2023/10/04 12:04:49;;;;;;;11.85;6.85;;;;;;;26.10;24.34;95473.97;5025586;28;21604;-74
2023/10/04 12:07:15;;;;;;;8.45;6.10;;;;;;;26.25;23.98;95470.75;5024140;28;20182;-72
2023/10/04 12:09:40;;;;;;;9.38;6.03;;;;;;;26.11;25.13;95464.81;5019515;28;20300;-72
2023/10/04 12:12:06;;;;;;;10.98;6.72;;;;;;;26.11;25.04;95462.13;5020659;28;20229;-73
2023/10/04 12:14:32;;;;;;;9.00;6.43;;;;;;;26.22;25.55;95471.25;5021019;28;20218;-76